Disclaimer

Please do not use the information listed here in-flight or in-navigation, as they are not provided to us by the airports but are provided by volunteers, so they might be outdated.

Search


Regions


Airport information page

Radio informations:
Tower (TWR) - 122.2 MHz
LANGEN RADAR - 125.6 MHz
PTD - 138.4 MHz
COMD POST - 258.7 MHz
PMSV METRO - 284.425 MHz
AMC AIRLIFT AMCC - 131.975 MHz
Ground (GND) - 138.8 MHz
Clearance delivery - 308.85 MHz
GCA - 129.475 MHz
RHEIN RADAR - 387.15 MHz
LIPPE RADAR - 314.6 MHz
SOF - 141.775 MHz

Airport informations:
Latitude: 49° 58' 21.60" N
Longitude: 006° 41' 33.00" E
Elevation: 1197 feet - 365 meters
Operating hours: Remarks
Operating agency: US Air Force
Timezone: UTC+1(+2DT) - Last Sunday in March to last Sunday in October
Fuel: JP-8, SemiKeroscene MIL Spec T-83133, without icing inhibitor

Runway information:
05/23 - 10007 x 148 feet< - >3050 x 45 meters

Recent METARs:
ETAD 181856Z AUTO 05011KT 9999 CLR 02/M11 A3016 RMK AO2 SLP222 T00231106 $
ETAD 181856Z AUTO 05011KT 9999 CLR 02/M11 A3016 RMK AO2 SLP222 T00231106 $
ETAD 181956Z AUTO 05010KT 9999 FEW070 SCT095 02/M10 A3015 RMK AO2 SLP219 T00151097 $

Airport on the map: